Terminal Aerodrome Forecast
Issued by NWS Austin/San Antonio, TX

Current Version | Previous Version | Text Only | Print | Product List | Glossary Off
Versions: 1 2 3 4 5 6 7 8 9 10 11 12 13 14 15 16 17 18 19 20 21 22 23 24 25 26

191
FTUS44 KEWX 262030 AAB
TAFSAT
TAF AMD
KSAT 262030Z 2620/2724 16012G22KT P6SM VCSH SCT025 BKN040 BKN250
     FM262100 17012KT P6SM VCTS SCT035CB BKN100
      TEMPO 2700/2704 2SM TSRA BR OVC015CB
     FM270600 13010KT P6SM VCSH OVC015
     FM270900 15012KT P6SM OVC007
     FM271500 17013KT P6SM OVC015=

USA.gov is the U.S. government's official web portal to all federal, state and local government web resources and services.